sensor_id;sensor_type;location;lat;lon;timestamp;temperature;humidity
9772;DHT22;4925;52.588;13.370;2023-05-07T00:00:24;10.70;99.90
9772;DHT22;4925;52.588;13.370;2023-05-07T00:02:50;10.70;99.90
9772;DHT22;4925;52.588;13.370;2023-05-07T00:05:15;10.70;99.90
9772;DHT22;4925;52.588;13.370;2023-05-07T00:07:41;10.80;99.90
9772;DHT22;4925;52.588;13.370;2023-05-07T00:10:07;10.70;99.90
9772;DHT22;4925;52.588;13.370;2023-05-07T00:12:33;10.80;99.90
9772;DHT22;4925;52.588;13.370;2023-05-07T00:15:01;10.80;99.90
9772;DHT22;4925;52.588;13.370;2023-05-07T00:17:26;10.80;99.90
9772;DHT22;4925;52.588;13.370;2023-05-07T00:19:52;10.80;99.90
9772;DHT22;4925;52.588;13.370;2023-05-07T00:22:18;10.70;99.90
9772;DHT22;4925;52.588;13.370;2023-05-07T00:24:43;10.70;99.90
9772;DHT22;4925;52.588;13.370;2023-05-07T00:27:09;10.70;99.90
9772;DHT22;4925;52.588;13.370;2023-05-07T00:29:35;10.70;99.90
9772;DHT22;4925;52.588;13.370;2023-05-07T00:32:02;10.60;99.90
9772;DHT22;4925;52.588;13.370;2023-05-07T00:34:27;10.60;99.90
9772;DHT22;4925;52.588;13.370;2023-05-07T00:36:53;10.60;99.90
9772;DHT22;4925;52.588;13.370;2023-05-07T00:39:18;10.60;99.90
9772;DHT22;4925;52.588;13.370;2023-05-07T00:41:44;10.60;99.90
9772;DHT22;4925;52.588;13.370;2023-05-07T00:44:10;10.70;99.90
9772;DHT22;4925;52.588;13.370;2023-05-07T00:46:36;10.70;99.90
9772;DHT22;4925;52.588;13.370;2023-05-07T00:49:01;10.80;99.90
9772;DHT22;4925;52.588;13.370;2023-05-07T00:51:28;10.90;99.90
9772;DHT22;4925;52.588;13.370;2023-05-07T00:53:54;10.90;99.90
9772;DHT22;4925;52.588;13.370;2023-05-07T00:56:23;10.90;99.90
9772;DHT22;4925;52.588;13.370;2023-05-07T00:58:49;10.90;99.90
9772;DHT22;4925;52.588;13.370;2023-05-07T01:01:15;10.90;99.90
9772;DHT22;4925;52.588;13.370;2023-05-07T01:03:42;10.90;99.90
9772;DHT22;4925;52.588;13.370;2023-05-07T01:06:08;10.90;99.90
9772;DHT22;4925;52.588;13.370;2023-05-07T01:08:35;10.90;99.90
9772;DHT22;4925;52.588;13.370;2023-05-07T01:11:02;10.90;99.90
9772;DHT22;4925;52.588;13.370;2023-05-07T01:13:27;10.90;99.90
9772;DHT22;4925;52.588;13.370;2023-05-07T01:15:53;10.80;99.90
9772;DHT22;4925;52.588;13.370;2023-05-07T01:18:19;10.80;99.90
9772;DHT22;4925;52.588;13.370;2023-05-07T01:20:45;10.80;99.90
9772;DHT22;4925;52.588;13.370;2023-05-07T01:23:11;10.80;99.90
9772;DHT22;4925;52.588;13.370;2023-05-07T01:25:37;10.80;99.90
9772;DHT22;4925;52.588;13.370;2023-05-07T01:28:03;10.80;99.90
9772;DHT22;4925;52.588;13.370;2023-05-07T01:30:29;10.80;99.90
9772;DHT22;4925;52.588;13.370;2023-05-07T01:33:15;10.80;99.90
9772;DHT22;4925;52.588;13.370;2023-05-07T01:35:46;10.70;99.90
9772;DHT22;4925;52.588;13.370;2023-05-07T01:38:13;10.70;99.90
9772;DHT22;4925;52.588;13.370;2023-05-07T01:40:39;10.80;99.90
9772;DHT22;4925;52.588;13.370;2023-05-07T01:43:05;10.70;99.90
9772;DHT22;4925;52.588;13.370;2023-05-07T01:45:32;10.70;99.90
9772;DHT22;4925;52.588;13.370;2023-05-07T01:48:02;10.70;99.90
9772;DHT22;4925;52.588;13.370;2023-05-07T01:50:29;10.60;99.90
9772;DHT22;4925;52.588;13.370;2023-05-07T01:52:55;10.70;99.90
9772;DHT22;4925;52.588;13.370;2023-05-07T01:55:21;10.80;99.90
9772;DHT22;4925;52.588;13.370;2023-05-07T01:57:47;10.80;99.90
9772;DHT22;4925;52.588;13.370;2023-05-07T02:00:12;10.70;99.90
9772;DHT22;4925;52.588;13.370;2023-05-07T02:02:38;10.80;99.90
9772;DHT22;4925;52.588;13.370;2023-05-07T02:05:05;10.80;99.90
9772;DHT22;4925;52.588;13.370;2023-05-07T02:07:30;10.70;99.90
9772;DHT22;4925;52.588;13.370;2023-05-07T02:09:56;10.70;99.90
9772;DHT22;4925;52.588;13.370;2023-05-07T02:12:22;10.70;99.90
9772;DHT22;4925;52.588;13.370;2023-05-07T02:14:48;10.70;99.90
9772;DHT22;4925;52.588;13.370;2023-05-07T02:17:14;10.60;99.90
9772;DHT22;4925;52.588;13.370;2023-05-07T02:19:40;10.70;99.90
9772;DHT22;4925;52.588;13.370;2023-05-07T02:22:06;10.70;99.90
9772;DHT22;4925;52.588;13.370;2023-05-07T02:24:32;10.70;99.90
9772;DHT22;4925;52.588;13.370;2023-05-07T02:26:58;10.70;99.90
9772;DHT22;4925;52.588;13.370;2023-05-07T02:29:23;10.60;99.90
9772;DHT22;4925;52.588;13.370;2023-05-07T02:31:49;10.60;99.90
9772;DHT22;4925;52.588;13.370;2023-05-07T02:34:16;10.60;99.90
9772;DHT22;4925;52.588;13.370;2023-05-07T02:36:42;10.50;99.90
9772;DHT22;4925;52.588;13.370;2023-05-07T02:39:08;10.50;99.90
9772;DHT22;4925;52.588;13.370;2023-05-07T02:41:34;10.60;99.90
9772;DHT22;4925;52.588;13.370;2023-05-07T02:44:00;10.60;99.90
9772;DHT22;4925;52.588;13.370;2023-05-07T02:46:25;10.50;99.90
9772;DHT22;4925;52.588;13.370;2023-05-07T02:48:51;10.50;99.90
9772;DHT22;4925;52.588;13.370;2023-05-07T02:51:21;10.50;99.90
9772;DHT22;4925;52.588;13.370;2023-05-07T02:53:47;10.40;99.90
9772;DHT22;4925;52.588;13.370;2023-05-07T02:56:13;10.40;99.90
9772;DHT22;4925;52.588;13.370;2023-05-07T02:58:39;10.40;99.90
9772;DHT22;4925;52.588;13.370;2023-05-07T03:01:08;10.40;99.90
9772;DHT22;4925;52.588;13.370;2023-05-07T03:03:34;10.40;99.90
9772;DHT22;4925;52.588;13.370;2023-05-07T03:06:00;10.50;99.90
9772;DHT22;4925;52.588;13.370;2023-05-07T03:08:26;10.40;99.90
9772;DHT22;4925;52.588;13.370;2023-05-07T03:10:52;10.40;99.90
9772;DHT22;4925;52.588;13.370;2023-05-07T03:13:18;10.40;99.90
9772;DHT22;4925;52.588;13.370;2023-05-07T03:15:43;10.40;99.90
9772;DHT22;4925;52.588;13.370;2023-05-07T03:18:09;10.40;99.90
9772;DHT22;4925;52.588;13.370;2023-05-07T03:20:35;10.50;99.90
9772;DHT22;4925;52.588;13.370;2023-05-07T03:23:01;10.50;99.90
9772;DHT22;4925;52.588;13.370;2023-05-07T03:25:27;10.60;99.90
9772;DHT22;4925;52.588;13.370;2023-05-07T03:27:55;10.60;99.90
9772;DHT22;4925;52.588;13.370;2023-05-07T03:30:21;10.50;99.90
9772;DHT22;4925;52.588;13.370;2023-05-07T03:32:47;10.60;99.90
9772;DHT22;4925;52.588;13.370;2023-05-07T03:35:12;10.60;99.90
9772;DHT22;4925;52.588;13.370;2023-05-07T03:37:38;10.70;99.90
9772;DHT22;4925;52.588;13.370;2023-05-07T03:40:05;10.60;99.90
9772;DHT22;4925;52.588;13.370;2023-05-07T03:42:31;10.60;99.90
9772;DHT22;4925;52.588;13.370;2023-05-07T03:44:57;10.70;99.90
9772;DHT22;4925;52.588;13.370;2023-05-07T03:47:22;10.60;99.90
9772;DHT22;4925;52.588;13.370;2023-05-07T03:49:48;10.70;99.90
9772;DHT22;4925;52.588;13.370;2023-05-07T03:52:14;10.70;99.90
9772;DHT22;4925;52.588;13.370;2023-05-07T03:54:40;10.70;99.90
9772;DHT22;4925;52.588;13.370;2023-05-07T03:57:06;10.70;99.90
9772;DHT22;4925;52.588;13.370;2023-05-07T03:59:31;10.60;99.90
9772;DHT22;4925;52.588;13.370;2023-05-07T04:01:58;10.60;99.90
9772;DHT22;4925;52.588;13.370;2023-05-07T04:04:23;10.60;99.90
9772;DHT22;4925;52.588;13.370;2023-05-07T04:06:49;10.60;99.90
9772;DHT22;4925;52.588;13.370;2023-05-07T04:09:15;10.60;99.90
9772;DHT22;4925;52.588;13.370;2023-05-07T04:11:40;10.40;99.90
9772;DHT22;4925;52.588;13.370;2023-05-07T04:14:06;10.40;99.90
9772;DHT22;4925;52.588;13.370;2023-05-07T04:16:32;10.50;99.90
9772;DHT22;4925;52.588;13.370;2023-05-07T04:18:57;10.40;99.90
9772;DHT22;4925;52.588;13.370;2023-05-07T04:21:23;10.40;99.90
9772;DHT22;4925;52.588;13.370;2023-05-07T04:23:49;10.40;99.90
9772;DHT22;4925;52.588;13.370;2023-05-07T04:26:15;10.40;99.90
9772;DHT22;4925;52.588;13.370;2023-05-07T04:28:41;10.40;99.90
9772;DHT22;4925;52.588;13.370;2023-05-07T04:31:07;10.40;99.90
9772;DHT22;4925;52.588;13.370;2023-05-07T04:33:33;10.40;99.90
9772;DHT22;4925;52.588;13.370;2023-05-07T04:36:02;10.50;99.90
9772;DHT22;4925;52.588;13.370;2023-05-07T04:38:29;10.50;99.90
9772;DHT22;4925;52.588;13.370;2023-05-07T04:40:56;10.50;99.90
9772;DHT22;4925;52.588;13.370;2023-05-07T04:43:22;10.50;99.90
9772;DHT22;4925;52.588;13.370;2023-05-07T04:45:50;10.50;99.90
9772;DHT22;4925;52.588;13.370;2023-05-07T04:48:15;10.50;99.90
9772;DHT22;4925;52.588;13.370;2023-05-07T04:50:41;10.50;99.90
9772;DHT22;4925;52.588;13.370;2023-05-07T04:53:07;10.50;99.90
9772;DHT22;4925;52.588;13.370;2023-05-07T04:55:33;10.50;99.90
9772;DHT22;4925;52.588;13.370;2023-05-07T04:57:58;10.40;99.90
9772;DHT22;4925;52.588;13.370;2023-05-07T05:00:25;10.40;99.90
9772;DHT22;4925;52.588;13.370;2023-05-07T05:02:51;10.40;99.90
9772;DHT22;4925;52.588;13.370;2023-05-07T05:05:17;10.40;99.90
9772;DHT22;4925;52.588;13.370;2023-05-07T05:07:42;10.30;99.90
9772;DHT22;4925;52.588;13.370;2023-05-07T05:10:08;10.30;99.90
9772;DHT22;4925;52.588;13.370;2023-05-07T05:12:34;10.30;99.90
9772;DHT22;4925;52.588;13.370;2023-05-07T05:15:00;10.40;99.90
9772;DHT22;4925;52.588;13.370;2023-05-07T05:17:25;10.40;99.90
9772;DHT22;4925;52.588;13.370;2023-05-07T05:19:51;10.30;99.90
9772;DHT22;4925;52.588;13.370;2023-05-07T05:22:17;10.30;99.90
9772;DHT22;4925;52.588;13.370;2023-05-07T05:24:42;10.10;99.90
9772;DHT22;4925;52.588;13.370;2023-05-07T05:27:08;10.20;99.90
9772;DHT22;4925;52.588;13.370;2023-05-07T05:29:34;10.40;99.90
9772;DHT22;4925;52.588;13.370;2023-05-07T05:31:59;10.50;99.90
9772;DHT22;4925;52.588;13.370;2023-05-07T05:34:25;10.60;99.90
9772;DHT22;4925;52.588;13.370;2023-05-07T05:36:51;10.70;99.90
9772;DHT22;4925;52.588;13.370;2023-05-07T05:39:17;10.90;99.90
9772;DHT22;4925;52.588;13.370;2023-05-07T05:41:42;10.90;99.90
9772;DHT22;4925;52.588;13.370;2023-05-07T05:44:08;10.90;99.90
9772;DHT22;4925;52.588;13.370;2023-05-07T05:46:34;10.90;99.90
9772;DHT22;4925;52.588;13.370;2023-05-07T05:49:00;10.90;99.90
9772;DHT22;4925;52.588;13.370;2023-05-07T05:51:26;10.90;99.90
9772;DHT22;4925;52.588;13.370;2023-05-07T05:53:51;11.00;99.90
9772;DHT22;4925;52.588;13.370;2023-05-07T05:56:17;11.10;99.90
9772;DHT22;4925;52.588;13.370;2023-05-07T05:58:43;11.00;99.90
9772;DHT22;4925;52.588;13.370;2023-05-07T06:01:08;11.10;99.90
9772;DHT22;4925;52.588;13.370;2023-05-07T06:03:34;11.30;99.90
9772;DHT22;4925;52.588;13.370;2023-05-07T06:06:00;11.50;99.90
9772;DHT22;4925;52.588;13.370;2023-05-07T06:08:29;11.70;99.90
9772;DHT22;4925;52.588;13.370;2023-05-07T06:10:55;11.80;99.90
9772;DHT22;4925;52.588;13.370;2023-05-07T06:13:20;11.70;99.90
9772;DHT22;4925;52.588;13.370;2023-05-07T06:15:46;11.80;99.90
9772;DHT22;4925;52.588;13.370;2023-05-07T06:18:12;12.00;99.90
9772;DHT22;4925;52.588;13.370;2023-05-07T06:20:37;12.00;99.90
9772;DHT22;4925;52.588;13.370;2023-05-07T06:23:03;11.80;99.90
9772;DHT22;4925;52.588;13.370;2023-05-07T06:25:28;11.80;99.90
9772;DHT22;4925;52.588;13.370;2023-05-07T06:27:54;11.90;99.90
9772;DHT22;4925;52.588;13.370;2023-05-07T06:30:20;12.10;99.90
9772;DHT22;4925;52.588;13.370;2023-05-07T06:32:46;12.10;99.90
9772;DHT22;4925;52.588;13.370;2023-05-07T06:35:11;12.20;99.90
9772;DHT22;4925;52.588;13.370;2023-05-07T06:37:38;12.30;99.90
9772;DHT22;4925;52.588;13.370;2023-05-07T06:40:05;12.30;99.90
9772;DHT22;4925;52.588;13.370;2023-05-07T06:42:32;12.30;99.90
9772;DHT22;4925;52.588;13.370;2023-05-07T06:44:58;12.10;99.90
9772;DHT22;4925;52.588;13.370;2023-05-07T06:47:23;12.10;99.90
9772;DHT22;4925;52.588;13.370;2023-05-07T06:49:49;12.20;99.90
9772;DHT22;4925;52.588;13.370;2023-05-07T06:52:15;12.40;99.90
9772;DHT22;4925;52.588;13.370;2023-05-07T06:54:40;12.10;99.90
9772;DHT22;4925;52.588;13.370;2023-05-07T06:57:06;12.20;99.90
9772;DHT22;4925;52.588;13.370;2023-05-07T06:59:32;12.30;99.90
9772;DHT22;4925;52.588;13.370;2023-05-07T07:01:58;12.50;99.90
9772;DHT22;4925;52.588;13.370;2023-05-07T07:04:23;12.60;99.90
9772;DHT22;4925;52.588;13.370;2023-05-07T07:06:52;12.70;99.90
9772;DHT22;4925;52.588;13.370;2023-05-07T07:09:18;12.70;99.90
9772;DHT22;4925;52.588;13.370;2023-05-07T07:11:43;12.60;99.90
9772;DHT22;4925;52.588;13.370;2023-05-07T07:14:09;12.70;99.90
9772;DHT22;4925;52.588;13.370;2023-05-07T07:16:35;12.70;99.90
9772;DHT22;4925;52.588;13.370;2023-05-07T07:19:00;12.50;99.90
9772;DHT22;4925;52.588;13.370;2023-05-07T07:21:26;12.40;99.90
9772;DHT22;4925;52.588;13.370;2023-05-07T07:23:52;12.50;99.90
9772;DHT22;4925;52.588;13.370;2023-05-07T07:26:17;12.50;99.90
9772;DHT22;4925;52.588;13.370;2023-05-07T07:28:47;12.50;99.90
9772;DHT22;4925;52.588;13.370;2023-05-07T07:31:13;12.70;99.90
9772;DHT22;4925;52.588;13.370;2023-05-07T07:33:38;12.80;99.90
9772;DHT22;4925;52.588;13.370;2023-05-07T07:36:05;12.90;99.90
9772;DHT22;4925;52.588;13.370;2023-05-07T07:38:31;13.00;99.90
9772;DHT22;4925;52.588;13.370;2023-05-07T07:40:57;12.90;99.90
9772;DHT22;4925;52.588;13.370;2023-05-07T07:43:23;12.90;99.90
9772;DHT22;4925;52.588;13.370;2023-05-07T07:45:48;12.70;99.90
9772;DHT22;4925;52.588;13.370;2023-05-07T07:48:14;12.80;99.90
9772;DHT22;4925;52.588;13.370;2023-05-07T07:50:40;13.00;99.90
9772;DHT22;4925;52.588;13.370;2023-05-07T07:53:05;13.20;99.90
9772;DHT22;4925;52.588;13.370;2023-05-07T07:55:31;13.20;99.90
9772;DHT22;4925;52.588;13.370;2023-05-07T07:57:57;13.20;99.90
9772;DHT22;4925;52.588;13.370;2023-05-07T08:00:23;13.30;99.90
9772;DHT22;4925;52.588;13.370;2023-05-07T08:02:48;13.30;99.90
9772;DHT22;4925;52.588;13.370;2023-05-07T08:05:14;13.50;99.90
9772;DHT22;4925;52.588;13.370;2023-05-07T08:07:40;13.50;99.90
9772;DHT22;4925;52.588;13.370;2023-05-07T08:10:06;13.50;99.90
9772;DHT22;4925;52.588;13.370;2023-05-07T08:12:32;13.50;99.90
9772;DHT22;4925;52.588;13.370;2023-05-07T08:14:58;13.40;99.90
9772;DHT22;4925;52.588;13.370;2023-05-07T08:17:24;13.60;99.90
9772;DHT22;4925;52.588;13.370;2023-05-07T08:19:49;13.60;99.90
9772;DHT22;4925;52.588;13.370;2023-05-07T08:22:15;13.60;99.90
9772;DHT22;4925;52.588;13.370;2023-05-07T08:24:41;13.80;99.90
9772;DHT22;4925;52.588;13.370;2023-05-07T08:27:06;13.80;99.90
9772;DHT22;4925;52.588;13.370;2023-05-07T08:29:32;14.00;99.90
9772;DHT22;4925;52.588;13.370;2023-05-07T08:31:57;14.20;99.90
9772;DHT22;4925;52.588;13.370;2023-05-07T08:34:23;14.30;99.90
9772;DHT22;4925;52.588;13.370;2023-05-07T08:36:49;14.40;99.90
9772;DHT22;4925;52.588;13.370;2023-05-07T08:39:17;14.40;99.90
9772;DHT22;4925;52.588;13.370;2023-05-07T08:41:45;14.50;99.90
9772;DHT22;4925;52.588;13.370;2023-05-07T08:44:14;14.40;99.90
9772;DHT22;4925;52.588;13.370;2023-05-07T08:46:41;14.60;99.90
9772;DHT22;4925;52.588;13.370;2023-05-07T08:49:07;14.50;99.90
9772;DHT22;4925;52.588;13.370;2023-05-07T08:51:33;14.50;99.90
9772;DHT22;4925;52.588;13.370;2023-05-07T08:53:59;14.80;99.90
9772;DHT22;4925;52.588;13.370;2023-05-07T08:56:26;14.90;99.90
9772;DHT22;4925;52.588;13.370;2023-05-07T08:58:52;15.20;99.90
9772;DHT22;4925;52.588;13.370;2023-05-07T09:01:22;15.40;99.90
9772;DHT22;4925;52.588;13.370;2023-05-07T09:03:49;15.50;99.90
9772;DHT22;4925;52.588;13.370;2023-05-07T09:06:15;15.50;99.90
9772;DHT22;4925;52.588;13.370;2023-05-07T09:08:51;15.50;99.90
9772;DHT22;4925;52.588;13.370;2023-05-07T09:11:23;15.80;99.90
9772;DHT22;4925;52.588;13.370;2023-05-07T09:13:53;15.90;99.90
9772;DHT22;4925;52.588;13.370;2023-05-07T09:16:20;15.90;99.90
9772;DHT22;4925;52.588;13.370;2023-05-07T09:18:47;16.10;99.90
9772;DHT22;4925;52.588;13.370;2023-05-07T09:21:17;16.10;99.90
9772;DHT22;4925;52.588;13.370;2023-05-07T09:23:43;16.00;99.90
9772;DHT22;4925;52.588;13.370;2023-05-07T09:26:09;15.70;99.90
9772;DHT22;4925;52.588;13.370;2023-05-07T09:28:40;15.90;99.90
9772;DHT22;4925;52.588;13.370;2023-05-07T09:31:10;16.00;99.90
9772;DHT22;4925;52.588;13.370;2023-05-07T09:33:37;16.10;99.90
9772;DHT22;4925;52.588;13.370;2023-05-07T09:36:04;16.10;99.90
9772;DHT22;4925;52.588;13.370;2023-05-07T09:38:31;16.10;99.90
9772;DHT22;4925;52.588;13.370;2023-05-07T09:41:10;16.20;99.90
9772;DHT22;4925;52.588;13.370;2023-05-07T09:43:37;16.20;99.90
9772;DHT22;4925;52.588;13.370;2023-05-07T09:46:14;16.20;99.90
9772;DHT22;4925;52.588;13.370;2023-05-07T09:48:42;16.20;99.90
9772;DHT22;4925;52.588;13.370;2023-05-07T09:53:36;16.00;99.90
9772;DHT22;4925;52.588;13.370;2023-05-07T09:56:03;15.90;99.90
9772;DHT22;4925;52.588;13.370;2023-05-07T09:58:30;15.80;99.90
9772;DHT22;4925;52.588;13.370;2023-05-07T10:00:57;15.80;99.90
9772;DHT22;4925;52.588;13.370;2023-05-07T10:03:24;16.00;99.90
9772;DHT22;4925;52.588;13.370;2023-05-07T10:05:53;16.10;99.90
9772;DHT22;4925;52.588;13.370;2023-05-07T10:08:19;16.10;99.90
9772;DHT22;4925;52.588;13.370;2023-05-07T10:10:46;16.20;99.90
9772;DHT22;4925;52.588;13.370;2023-05-07T10:13:12;16.30;99.90
9772;DHT22;4925;52.588;13.370;2023-05-07T10:15:38;16.30;99.90
9772;DHT22;4925;52.588;13.370;2023-05-07T10:18:06;16.50;99.90
9772;DHT22;4925;52.588;13.370;2023-05-07T10:20:33;16.70;99.90
9772;DHT22;4925;52.588;13.370;2023-05-07T10:23:04;16.70;99.90
9772;DHT22;4925;52.588;13.370;2023-05-07T10:25:31;16.50;99.90
9772;DHT22;4925;52.588;13.370;2023-05-07T10:28:04;16.40;99.90
9772;DHT22;4925;52.588;13.370;2023-05-07T10:33:13;16.90;99.90
9772;DHT22;4925;52.588;13.370;2023-05-07T10:35:42;17.00;99.90
9772;DHT22;4925;52.588;13.370;2023-05-07T10:38:10;17.10;99.90
9772;DHT22;4925;52.588;13.370;2023-05-07T10:40:36;17.20;99.90
9772;DHT22;4925;52.588;13.370;2023-05-07T10:43:03;17.10;99.60
9772;DHT22;4925;52.588;13.370;2023-05-07T10:45:32;17.30;99.40
9772;DHT22;4925;52.588;13.370;2023-05-07T10:48:12;17.20;99.60
9772;DHT22;4925;52.588;13.370;2023-05-07T10:50:39;17.00;98.90
9772;DHT22;4925;52.588;13.370;2023-05-07T10:58:44;17.00;98.20
9772;DHT22;4925;52.588;13.370;2023-05-07T11:01:10;17.00;98.40
9772;DHT22;4925;52.588;13.370;2023-05-07T11:04:14;17.40;97.60
9772;DHT22;4925;52.588;13.370;2023-05-07T11:06:40;17.80;97.20
9772;DHT22;4925;52.588;13.370;2023-05-07T11:09:06;17.90;94.90
9772;DHT22;4925;52.588;13.370;2023-05-07T11:11:45;17.90;94.80
9772;DHT22;4925;52.588;13.370;2023-05-07T11:17:08;18.40;93.60
9772;DHT22;4925;52.588;13.370;2023-05-07T11:19:54;18.70;93.20
9772;DHT22;4925;52.588;13.370;2023-05-07T11:25:02;19.90;90.40
9772;DHT22;4925;52.588;13.370;2023-05-07T11:27:28;20.10;89.80
9772;DHT22;4925;52.588;13.370;2023-05-07T11:29:54;19.90;88.10
9772;DHT22;4925;52.588;13.370;2023-05-07T11:34:54;20.40;86.00
9772;DHT22;4925;52.588;13.370;2023-05-07T11:37:21;20.90;84.10
9772;DHT22;4925;52.588;13.370;2023-05-07T11:39:47;20.70;82.70
9772;DHT22;4925;52.588;13.370;2023-05-07T11:42:32;20.40;82.30
9772;DHT22;4925;52.588;13.370;2023-05-07T11:44:59;20.20;84.60
9772;DHT22;4925;52.588;13.370;2023-05-07T11:47:24;19.90;86.90
9772;DHT22;4925;52.588;13.370;2023-05-07T11:49:55;20.00;84.70
9772;DHT22;4925;52.588;13.370;2023-05-07T11:52:22;19.80;86.60
9772;DHT22;4925;52.588;13.370;2023-05-07T11:54:55;19.30;87.50
9772;DHT22;4925;52.588;13.370;2023-05-07T11:57:22;19.50;87.90
9772;DHT22;4925;52.588;13.370;2023-05-07T11:59:47;19.40;89.00
9772;DHT22;4925;52.588;13.370;2023-05-07T12:02:14;19.40;89.10
9772;DHT22;4925;52.588;13.370;2023-05-07T12:04:41;19.30;89.10
9772;DHT22;4925;52.588;13.370;2023-05-07T12:07:14;18.80;90.10
9772;DHT22;4925;52.588;13.370;2023-05-07T12:09:43;19.10;90.00
9772;DHT22;4925;52.588;13.370;2023-05-07T12:12:09;19.60;88.80
9772;DHT22;4925;52.588;13.370;2023-05-07T12:14:43;20.00;85.50
9772;DHT22;4925;52.588;13.370;2023-05-07T12:17:13;20.20;86.20
9772;DHT22;4925;52.588;13.370;2023-05-07T12:19:41;20.40;84.80
9772;DHT22;4925;52.588;13.370;2023-05-07T12:22:10;20.20;83.90
9772;DHT22;4925;52.588;13.370;2023-05-07T12:24:56;19.90;84.20
9772;DHT22;4925;52.588;13.370;2023-05-07T12:27:22;20.30;84.10
9772;DHT22;4925;52.588;13.370;2023-05-07T12:29:49;20.50;82.20
9772;DHT22;4925;52.588;13.370;2023-05-07T12:32:16;20.90;81.80
9772;DHT22;4925;52.588;13.370;2023-05-07T12:34:43;21.30;77.50
9772;DHT22;4925;52.588;13.370;2023-05-07T12:37:09;21.50;76.30
9772;DHT22;4925;52.588;13.370;2023-05-07T12:39:35;21.70;75.50
9772;DHT22;4925;52.588;13.370;2023-05-07T12:42:01;21.80;75.00
9772;DHT22;4925;52.588;13.370;2023-05-07T12:44:33;22.00;73.90
9772;DHT22;4925;52.588;13.370;2023-05-07T12:47:02;21.50;72.00
9772;DHT22;4925;52.588;13.370;2023-05-07T12:49:28;21.70;73.20
9772;DHT22;4925;52.588;13.370;2023-05-07T12:51:54;22.10;70.80
9772;DHT22;4925;52.588;13.370;2023-05-07T12:54:33;21.90;71.20
9772;DHT22;4925;52.588;13.370;2023-05-07T12:57:07;21.80;71.00
9772;DHT22;4925;52.588;13.370;2023-05-07T12:59:37;21.50;73.00
9772;DHT22;4925;52.588;13.370;2023-05-07T13:02:04;21.00;74.10
9772;DHT22;4925;52.588;13.370;2023-05-07T13:04:30;21.60;73.90
9772;DHT22;4925;52.588;13.370;2023-05-07T13:06:56;21.80;71.30
9772;DHT22;4925;52.588;13.370;2023-05-07T13:09:22;22.10;72.10
9772;DHT22;4925;52.588;13.370;2023-05-07T13:11:47;22.40;70.40
9772;DHT22;4925;52.588;13.370;2023-05-07T13:14:13;22.60;67.20
9772;DHT22;4925;52.588;13.370;2023-05-07T13:16:39;22.80;66.20
9772;DHT22;4925;52.588;13.370;2023-05-07T13:19:04;22.90;65.60
9772;DHT22;4925;52.588;13.370;2023-05-07T13:21:30;23.00;64.70
9772;DHT22;4925;52.588;13.370;2023-05-07T13:23:59;22.50;63.60
9772;DHT22;4925;52.588;13.370;2023-05-07T13:26:25;22.00;65.20
9772;DHT22;4925;52.588;13.370;2023-05-07T13:28:52;21.90;65.70
9772;DHT22;4925;52.588;13.370;2023-05-07T13:31:18;21.70;65.10
9772;DHT22;4925;52.588;13.370;2023-05-07T13:33:43;21.70;63.70
9772;DHT22;4925;52.588;13.370;2023-05-07T13:36:09;21.60;64.50
9772;DHT22;4925;52.588;13.370;2023-05-07T13:38:35;21.00;66.30
9772;DHT22;4925;52.588;13.370;2023-05-07T13:41:01;21.40;66.90
9772;DHT22;4925;52.588;13.370;2023-05-07T13:43:26;21.50;67.50
9772;DHT22;4925;52.588;13.370;2023-05-07T13:45:52;21.40;66.80
9772;DHT22;4925;52.588;13.370;2023-05-07T13:48:18;21.70;66.60
9772;DHT22;4925;52.588;13.370;2023-05-07T13:50:43;21.50;67.60
9772;DHT22;4925;52.588;13.370;2023-05-07T13:53:09;21.20;68.10
9772;DHT22;4925;52.588;13.370;2023-05-07T13:55:35;21.10;67.40
9772;DHT22;4925;52.588;13.370;2023-05-07T13:58:01;20.90;68.80
9772;DHT22;4925;52.588;13.370;2023-05-07T14:00:28;20.70;68.40
9772;DHT22;4925;52.588;13.370;2023-05-07T14:02:55;20.70;68.60
9772;DHT22;4925;52.588;13.370;2023-05-07T14:05:21;20.90;67.10
9772;DHT22;4925;52.588;13.370;2023-05-07T14:07:50;21.10;66.50
9772;DHT22;4925;52.588;13.370;2023-05-07T14:10:17;21.10;63.00
9772;DHT22;4925;52.588;13.370;2023-05-07T14:12:44;21.10;62.50
9772;DHT22;4925;52.588;13.370;2023-05-07T14:15:10;20.90;63.60
9772;DHT22;4925;52.588;13.370;2023-05-07T14:17:36;20.30;65.00
9772;DHT22;4925;52.588;13.370;2023-05-07T14:20:02;20.10;68.20
9772;DHT22;4925;52.588;13.370;2023-05-07T14:22:28;19.80;67.60
9772;DHT22;4925;52.588;13.370;2023-05-07T14:24:54;19.80;69.70
9772;DHT22;4925;52.588;13.370;2023-05-07T14:27:20;20.00;67.40
9772;DHT22;4925;52.588;13.370;2023-05-07T14:29:45;19.70;66.20
9772;DHT22;4925;52.588;13.370;2023-05-07T14:32:17;19.60;66.80
9772;DHT22;4925;52.588;13.370;2023-05-07T14:34:43;19.80;68.50
9772;DHT22;4925;52.588;13.370;2023-05-07T14:37:08;20.10;69.80
9772;DHT22;4925;52.588;13.370;2023-05-07T14:39:34;20.20;69.50
9772;DHT22;4925;52.588;13.370;2023-05-07T14:41:59;20.20;69.00
9772;DHT22;4925;52.588;13.370;2023-05-07T14:44:25;20.10;68.40
9772;DHT22;4925;52.588;13.370;2023-05-07T14:46:51;19.90;68.70
9772;DHT22;4925;52.588;13.370;2023-05-07T14:49:16;19.60;69.50
9772;DHT22;4925;52.588;13.370;2023-05-07T14:51:44;19.60;70.20
9772;DHT22;4925;52.588;13.370;2023-05-07T14:54:10;19.60;72.10
9772;DHT22;4925;52.588;13.370;2023-05-07T14:56:36;19.30;70.90
9772;DHT22;4925;52.588;13.370;2023-05-07T14:59:02;19.40;72.10
9772;DHT22;4925;52.588;13.370;2023-05-07T15:01:29;19.20;73.30
9772;DHT22;4925;52.588;13.370;2023-05-07T15:03:55;19.20;74.70
9772;DHT22;4925;52.588;13.370;2023-05-07T15:06:21;19.20;74.40
9772;DHT22;4925;52.588;13.370;2023-05-07T15:08:47;19.10;74.90
9772;DHT22;4925;52.588;13.370;2023-05-07T15:11:14;18.90;75.40
9772;DHT22;4925;52.588;13.370;2023-05-07T15:13:41;18.60;76.90
9772;DHT22;4925;52.588;13.370;2023-05-07T15:16:06;18.70;78.20
9772;DHT22;4925;52.588;13.370;2023-05-07T15:18:32;18.60;77.90
9772;DHT22;4925;52.588;13.370;2023-05-07T15:20:58;18.90;77.50
9772;DHT22;4925;52.588;13.370;2023-05-07T15:23:23;18.90;76.20
9772;DHT22;4925;52.588;13.370;2023-05-07T15:25:49;19.00;76.00
9772;DHT22;4925;52.588;13.370;2023-05-07T15:28:15;19.00;77.40
9772;DHT22;4925;52.588;13.370;2023-05-07T15:30:41;19.10;75.70
9772;DHT22;4925;52.588;13.370;2023-05-07T15:33:06;19.20;75.70
9772;DHT22;4925;52.588;13.370;2023-05-07T15:35:32;19.20;77.20
9772;DHT22;4925;52.588;13.370;2023-05-07T15:37:58;19.20;77.70
9772;DHT22;4925;52.588;13.370;2023-05-07T15:40:24;19.10;76.30
9772;DHT22;4925;52.588;13.370;2023-05-07T15:42:50;19.20;77.30
9772;DHT22;4925;52.588;13.370;2023-05-07T15:45:19;19.30;77.20
9772;DHT22;4925;52.588;13.370;2023-05-07T15:47:44;19.20;78.40
9772;DHT22;4925;52.588;13.370;2023-05-07T15:50:10;19.00;78.50
9772;DHT22;4925;52.588;13.370;2023-05-07T15:52:36;18.70;79.00
9772;DHT22;4925;52.588;13.370;2023-05-07T15:55:04;18.50;80.10
9772;DHT22;4925;52.588;13.370;2023-05-07T15:57:31;18.40;80.10
9772;DHT22;4925;52.588;13.370;2023-05-07T15:59:57;18.40;80.80